sensor_id;sensor_type;location;lat;lon;timestamp;P1;durP1;ratioP1;P2;durP2;ratioP2
6973;SDS011;3527;52.376;8.990;2022-10-18T00:01:13;18.87;;;13.67;;
6973;SDS011;3527;52.376;8.990;2022-10-18T00:04:00;19.33;;;14.10;;
6973;SDS011;3527;52.376;8.990;2022-10-18T00:06:47;20.43;;;14.27;;
6973;SDS011;3527;52.376;8.990;2022-10-18T00:09:34;22.60;;;15.17;;
6973;SDS011;3527;52.376;8.990;2022-10-18T00:12:21;24.47;;;14.77;;
6973;SDS011;3527;52.376;8.990;2022-10-18T00:15:09;28.57;;;18.53;;
6973;SDS011;3527;52.376;8.990;2022-10-18T00:17:57;30.37;;;19.03;;
6973;SDS011;3527;52.376;8.990;2022-10-18T00:20:44;29.37;;;18.37;;
6973;SDS011;3527;52.376;8.990;2022-10-18T00:23:32;23.60;;;16.27;;
6973;SDS011;3527;52.376;8.990;2022-10-18T00:26:21;32.30;;;19.27;;
6973;SDS011;3527;52.376;8.990;2022-10-18T00:29:13;30.00;;;20.07;;
6973;SDS011;3527;52.376;8.990;2022-10-18T00:32:01;30.63;;;21.30;;
6973;SDS011;3527;52.376;8.990;2022-10-18T00:34:48;33.93;;;23.13;;
6973;SDS011;3527;52.376;8.990;2022-10-18T00:37:35;33.83;;;24.43;;
6973;SDS011;3527;52.376;8.990;2022-10-18T00:40:22;30.13;;;22.97;;
6973;SDS011;3527;52.376;8.990;2022-10-18T00:43:12;28.47;;;21.10;;
6973;SDS011;3527;52.376;8.990;2022-10-18T00:46:02;33.97;;;24.23;;
6973;SDS011;3527;52.376;8.990;2022-10-18T00:48:50;37.57;;;23.27;;
6973;SDS011;3527;52.376;8.990;2022-10-18T00:51:43;28.50;;;20.37;;
6973;SDS011;3527;52.376;8.990;2022-10-18T00:54:32;33.97;;;22.63;;
6973;SDS011;3527;52.376;8.990;2022-10-18T00:57:21;31.57;;;22.77;;
6973;SDS011;3527;52.376;8.990;2022-10-18T01:00:10;38.23;;;25.50;;
6973;SDS011;3527;52.376;8.990;2022-10-18T01:02:58;32.03;;;22.10;;
6973;SDS011;3527;52.376;8.990;2022-10-18T01:05:46;28.23;;;19.77;;
6973;SDS011;3527;52.376;8.990;2022-10-18T01:08:54;34.37;;;22.07;;
6973;SDS011;3527;52.376;8.990;2022-10-18T01:33:57;33.07;;;20.80;;
6973;SDS011;3527;52.376;8.990;2022-10-18T01:36:49;32.63;;;21.67;;
6973;SDS011;3527;52.376;8.990;2022-10-18T01:39:40;34.43;;;23.70;;
6973;SDS011;3527;52.376;8.990;2022-10-18T01:42:31;37.53;;;23.87;;
6973;SDS011;3527;52.376;8.990;2022-10-18T01:45:18;32.40;;;22.93;;
6973;SDS011;3527;52.376;8.990;2022-10-18T01:48:09;37.83;;;24.47;;
6973;SDS011;3527;52.376;8.990;2022-10-18T01:50:57;34.60;;;22.27;;
6973;SDS011;3527;52.376;8.990;2022-10-18T01:53:44;39.23;;;22.93;;
6973;SDS011;3527;52.376;8.990;2022-10-18T01:59:57;29.70;;;21.03;;
6973;SDS011;3527;52.376;8.990;2022-10-18T02:05:47;32.63;;;19.27;;
6973;SDS011;3527;52.376;8.990;2022-10-18T02:08:41;28.77;;;19.80;;
6973;SDS011;3527;52.376;8.990;2022-10-18T02:11:33;27.73;;;18.43;;
6973;SDS011;3527;52.376;8.990;2022-10-18T02:14:23;30.87;;;19.53;;
6973;SDS011;3527;52.376;8.990;2022-10-18T02:17:11;33.07;;;19.90;;
6973;SDS011;3527;52.376;8.990;2022-10-18T02:20:00;27.43;;;19.07;;
6973;SDS011;3527;52.376;8.990;2022-10-18T02:22:51;25.73;;;18.53;;
6973;SDS011;3527;52.376;8.990;2022-10-18T02:25:41;28.03;;;18.70;;
6973;SDS011;3527;52.376;8.990;2022-10-18T02:28:28;37.20;;;20.97;;
6973;SDS011;3527;52.376;8.990;2022-10-18T02:31:20;29.40;;;20.27;;
6973;SDS011;3527;52.376;8.990;2022-10-18T02:37:17;30.90;;;19.63;;
6973;SDS011;3527;52.376;8.990;2022-10-18T02:40:06;27.00;;;18.83;;
6973;SDS011;3527;52.376;8.990;2022-10-18T02:42:56;32.70;;;19.37;;
6973;SDS011;3527;52.376;8.990;2022-10-18T02:45:44;26.27;;;18.77;;
6973;SDS011;3527;52.376;8.990;2022-10-18T02:48:31;27.33;;;19.23;;
6973;SDS011;3527;52.376;8.990;2022-10-18T02:51:18;27.60;;;18.73;;
6973;SDS011;3527;52.376;8.990;2022-10-18T02:54:05;31.27;;;19.40;;
6973;SDS011;3527;52.376;8.990;2022-10-18T02:56:53;30.20;;;20.17;;
6973;SDS011;3527;52.376;8.990;2022-10-18T02:59:41;31.67;;;20.70;;
6973;SDS011;3527;52.376;8.990;2022-10-18T03:02:28;33.70;;;21.67;;
6973;SDS011;3527;52.376;8.990;2022-10-18T03:05:14;36.73;;;22.57;;
6973;SDS011;3527;52.376;8.990;2022-10-18T03:08:01;32.17;;;21.03;;
6973;SDS011;3527;52.376;8.990;2022-10-18T03:10:49;41.97;;;25.10;;
6973;SDS011;3527;52.376;8.990;2022-10-18T03:13:36;36.57;;;21.50;;
6973;SDS011;3527;52.376;8.990;2022-10-18T03:16:23;40.10;;;23.40;;
6973;SDS011;3527;52.376;8.990;2022-10-18T03:19:10;43.60;;;25.33;;
6973;SDS011;3527;52.376;8.990;2022-10-18T03:21:57;38.27;;;23.17;;
6973;SDS011;3527;52.376;8.990;2022-10-18T03:24:44;37.97;;;23.67;;
6973;SDS011;3527;52.376;8.990;2022-10-18T03:27:31;41.73;;;25.50;;
6973;SDS011;3527;52.376;8.990;2022-10-18T03:30:18;41.47;;;26.00;;
6973;SDS011;3527;52.376;8.990;2022-10-18T03:33:05;39.70;;;25.43;;
6973;SDS011;3527;52.376;8.990;2022-10-18T03:35:52;40.97;;;27.23;;
6973;SDS011;3527;52.376;8.990;2022-10-18T03:38:39;42.17;;;26.93;;
6973;SDS011;3527;52.376;8.990;2022-10-18T03:41:26;40.27;;;25.20;;
6973;SDS011;3527;52.376;8.990;2022-10-18T03:44:13;46.87;;;25.93;;
6973;SDS011;3527;52.376;8.990;2022-10-18T03:47:00;44.10;;;24.87;;
6973;SDS011;3527;52.376;8.990;2022-10-18T03:49:48;38.60;;;24.17;;
6973;SDS011;3527;52.376;8.990;2022-10-18T03:52:41;46.60;;;25.30;;
6973;SDS011;3527;52.376;8.990;2022-10-18T03:55:28;40.63;;;24.97;;
6973;SDS011;3527;52.376;8.990;2022-10-18T03:58:16;48.70;;;27.07;;
6973;SDS011;3527;52.376;8.990;2022-10-18T04:01:03;41.90;;;26.33;;
6973;SDS011;3527;52.376;8.990;2022-10-18T04:03:51;46.43;;;26.90;;
6973;SDS011;3527;52.376;8.990;2022-10-18T04:06:38;53.23;;;28.10;;
6973;SDS011;3527;52.376;8.990;2022-10-18T04:09:25;46.43;;;27.70;;
6973;SDS011;3527;52.376;8.990;2022-10-18T04:12:12;44.30;;;26.13;;
6973;SDS011;3527;52.376;8.990;2022-10-18T04:14:59;49.23;;;26.90;;
6973;SDS011;3527;52.376;8.990;2022-10-18T04:17:46;52.20;;;29.57;;
6973;SDS011;3527;52.376;8.990;2022-10-18T04:20:33;47.90;;;26.70;;
6973;SDS011;3527;52.376;8.990;2022-10-18T04:23:20;36.07;;;23.97;;
6973;SDS011;3527;52.376;8.990;2022-10-18T04:26:07;41.30;;;24.10;;
6973;SDS011;3527;52.376;8.990;2022-10-18T04:28:54;41.73;;;23.87;;
6973;SDS011;3527;52.376;8.990;2022-10-18T04:31:41;40.10;;;22.40;;
6973;SDS011;3527;52.376;8.990;2022-10-18T04:34:28;38.80;;;23.23;;
6973;SDS011;3527;52.376;8.990;2022-10-18T04:37:15;34.10;;;22.50;;
6973;SDS011;3527;52.376;8.990;2022-10-18T04:40:03;42.97;;;26.00;;
6973;SDS011;3527;52.376;8.990;2022-10-18T04:42:50;35.33;;;21.87;;
6973;SDS011;3527;52.376;8.990;2022-10-18T04:45:37;42.17;;;24.67;;
6973;SDS011;3527;52.376;8.990;2022-10-18T04:48:24;45.77;;;25.57;;
6973;SDS011;3527;52.376;8.990;2022-10-18T04:51:11;40.53;;;23.63;;
6973;SDS011;3527;52.376;8.990;2022-10-18T04:53:58;38.90;;;23.13;;
6973;SDS011;3527;52.376;8.990;2022-10-18T04:56:45;41.43;;;23.80;;
6973;SDS011;3527;52.376;8.990;2022-10-18T04:59:32;44.03;;;25.40;;
6973;SDS011;3527;52.376;8.990;2022-10-18T05:02:19;49.03;;;27.43;;
6973;SDS011;3527;52.376;8.990;2022-10-18T05:05:06;46.30;;;25.57;;
6973;SDS011;3527;52.376;8.990;2022-10-18T05:07:58;37.47;;;24.20;;
6973;SDS011;3527;52.376;8.990;2022-10-18T05:10:45;44.00;;;25.13;;
6973;SDS011;3527;52.376;8.990;2022-10-18T05:13:32;38.03;;;24.17;;
6973;SDS011;3527;52.376;8.990;2022-10-18T05:16:20;48.27;;;27.83;;
6973;SDS011;3527;52.376;8.990;2022-10-18T05:19:07;38.73;;;24.13;;
6973;SDS011;3527;52.376;8.990;2022-10-18T05:21:53;42.30;;;25.07;;
6973;SDS011;3527;52.376;8.990;2022-10-18T05:24:40;44.57;;;25.40;;
6973;SDS011;3527;52.376;8.990;2022-10-18T05:27:27;43.07;;;24.27;;
6973;SDS011;3527;52.376;8.990;2022-10-18T05:30:15;42.37;;;24.07;;
6973;SDS011;3527;52.376;8.990;2022-10-18T05:33:02;41.80;;;24.67;;
6973;SDS011;3527;52.376;8.990;2022-10-18T05:35:49;42.20;;;23.57;;
6973;SDS011;3527;52.376;8.990;2022-10-18T05:38:39;40.33;;;23.10;;
6973;SDS011;3527;52.376;8.990;2022-10-18T05:41:28;42.27;;;24.33;;
6973;SDS011;3527;52.376;8.990;2022-10-18T05:44:15;43.50;;;25.20;;
6973;SDS011;3527;52.376;8.990;2022-10-18T05:47:02;40.03;;;24.53;;
6973;SDS011;3527;52.376;8.990;2022-10-18T05:49:49;52.47;;;27.23;;
6973;SDS011;3527;52.376;8.990;2022-10-18T05:52:36;43.70;;;26.17;;
6973;SDS011;3527;52.376;8.990;2022-10-18T05:55:23;48.50;;;27.07;;
6973;SDS011;3527;52.376;8.990;2022-10-18T05:58:10;51.93;;;27.77;;
6973;SDS011;3527;52.376;8.990;2022-10-18T06:00:58;49.40;;;26.70;;
6973;SDS011;3527;52.376;8.990;2022-10-18T06:03:46;45.93;;;25.33;;
6973;SDS011;3527;52.376;8.990;2022-10-18T06:06:33;51.50;;;28.50;;
6973;SDS011;3527;52.376;8.990;2022-10-18T06:09:20;50.60;;;29.27;;
6973;SDS011;3527;52.376;8.990;2022-10-18T06:12:07;42.60;;;24.73;;
6973;SDS011;3527;52.376;8.990;2022-10-18T06:14:54;44.20;;;25.70;;
6973;SDS011;3527;52.376;8.990;2022-10-18T06:17:41;48.43;;;26.03;;
6973;SDS011;3527;52.376;8.990;2022-10-18T06:20:29;50.00;;;27.80;;
6973;SDS011;3527;52.376;8.990;2022-10-18T06:23:15;59.07;;;30.17;;
6973;SDS011;3527;52.376;8.990;2022-10-18T06:26:03;54.10;;;28.87;;
6973;SDS011;3527;52.376;8.990;2022-10-18T06:28:52;52.40;;;28.73;;
6973;SDS011;3527;52.376;8.990;2022-10-18T06:31:40;59.30;;;32.30;;
6973;SDS011;3527;52.376;8.990;2022-10-18T06:34:27;57.87;;;29.97;;
6973;SDS011;3527;52.376;8.990;2022-10-18T06:37:14;55.70;;;29.30;;
6973;SDS011;3527;52.376;8.990;2022-10-18T06:40:01;52.67;;;27.60;;
6973;SDS011;3527;52.376;8.990;2022-10-18T06:42:48;48.87;;;27.63;;
6973;SDS011;3527;52.376;8.990;2022-10-18T06:45:45;48.37;;;27.53;;
6973;SDS011;3527;52.376;8.990;2022-10-18T06:48:34;46.97;;;27.13;;
6973;SDS011;3527;52.376;8.990;2022-10-18T06:51:21;42.93;;;24.13;;
6973;SDS011;3527;52.376;8.990;2022-10-18T06:54:08;39.60;;;23.77;;
6973;SDS011;3527;52.376;8.990;2022-10-18T06:57:04;48.00;;;26.90;;
6973;SDS011;3527;52.376;8.990;2022-10-18T06:59:51;47.40;;;27.23;;
6973;SDS011;3527;52.376;8.990;2022-10-18T07:02:38;46.73;;;27.00;;
6973;SDS011;3527;52.376;8.990;2022-10-18T07:05:26;42.47;;;24.67;;
6973;SDS011;3527;52.376;8.990;2022-10-18T07:08:14;46.50;;;25.73;;
6973;SDS011;3527;52.376;8.990;2022-10-18T07:11:01;48.63;;;28.30;;
6973;SDS011;3527;52.376;8.990;2022-10-18T07:13:49;43.57;;;26.53;;
6973;SDS011;3527;52.376;8.990;2022-10-18T07:16:37;37.50;;;22.20;;
6973;SDS011;3527;52.376;8.990;2022-10-18T07:19:24;46.53;;;27.70;;
6973;SDS011;3527;52.376;8.990;2022-10-18T07:22:11;49.80;;;30.43;;
6973;SDS011;3527;52.376;8.990;2022-10-18T07:24:58;47.47;;;28.43;;
6973;SDS011;3527;52.376;8.990;2022-10-18T07:27:45;49.53;;;29.97;;
6973;SDS011;3527;52.376;8.990;2022-10-18T07:30:32;63.53;;;32.57;;
6973;SDS011;3527;52.376;8.990;2022-10-18T07:33:19;52.33;;;30.57;;
6973;SDS011;3527;52.376;8.990;2022-10-18T07:36:07;57.23;;;32.97;;
6973;SDS011;3527;52.376;8.990;2022-10-18T07:38:55;57.43;;;33.57;;
6973;SDS011;3527;52.376;8.990;2022-10-18T07:41:42;58.57;;;33.53;;
6973;SDS011;3527;52.376;8.990;2022-10-18T07:44:29;58.90;;;34.00;;
6973;SDS011;3527;52.376;8.990;2022-10-18T07:47:16;53.33;;;31.73;;
6973;SDS011;3527;52.376;8.990;2022-10-18T07:50:04;54.23;;;32.37;;
6973;SDS011;3527;52.376;8.990;2022-10-18T07:52:51;53.20;;;32.03;;
6973;SDS011;3527;52.376;8.990;2022-10-18T07:55:38;49.97;;;30.37;;
6973;SDS011;3527;52.376;8.990;2022-10-18T07:58:25;45.03;;;28.33;;
6973;SDS011;3527;52.376;8.990;2022-10-18T08:01:13;52.23;;;29.93;;
6973;SDS011;3527;52.376;8.990;2022-10-18T08:04:00;53.47;;;30.07;;
6973;SDS011;3527;52.376;8.990;2022-10-18T08:06:53;49.60;;;29.77;;
6973;SDS011;3527;52.376;8.990;2022-10-18T08:09:40;51.77;;;29.90;;
6973;SDS011;3527;52.376;8.990;2022-10-18T08:12:27;51.30;;;30.57;;
6973;SDS011;3527;52.376;8.990;2022-10-18T08:15:14;51.53;;;30.27;;
6973;SDS011;3527;52.376;8.990;2022-10-18T08:18:01;47.90;;;28.77;;
6973;SDS011;3527;52.376;8.990;2022-10-18T08:20:48;47.63;;;28.77;;
6973;SDS011;3527;52.376;8.990;2022-10-18T08:23:36;51.10;;;27.87;;
6973;SDS011;3527;52.376;8.990;2022-10-18T08:26:23;52.60;;;29.00;;
6973;SDS011;3527;52.376;8.990;2022-10-18T08:29:10;53.37;;;29.23;;
6973;SDS011;3527;52.376;8.990;2022-10-18T08:32:17;51.53;;;29.20;;
6973;SDS011;3527;52.376;8.990;2022-10-18T08:35:04;56.67;;;31.33;;
6973;SDS011;3527;52.376;8.990;2022-10-18T08:37:54;53.13;;;30.07;;
6973;SDS011;3527;52.376;8.990;2022-10-18T08:40:42;54.63;;;31.17;;
6973;SDS011;3527;52.376;8.990;2022-10-18T08:43:34;53.10;;;29.50;;
6973;SDS011;3527;52.376;8.990;2022-10-18T08:46:27;46.07;;;27.93;;
6973;SDS011;3527;52.376;8.990;2022-10-18T08:49:19;56.03;;;31.70;;
6973;SDS011;3527;52.376;8.990;2022-10-18T08:52:24;56.23;;;30.43;;
6973;SDS011;3527;52.376;8.990;2022-10-18T08:58:18;58.83;;;31.43;;
6973;SDS011;3527;52.376;8.990;2022-10-18T09:01:23;52.43;;;29.17;;
6973;SDS011;3527;52.376;8.990;2022-10-18T09:20:27;47.77;;;28.17;;
6973;SDS011;3527;52.376;8.990;2022-10-18T09:23:49;50.03;;;28.57;;
6973;SDS011;3527;52.376;8.990;2022-10-18T09:26:54;50.23;;;27.73;;
6973;SDS011;3527;52.376;8.990;2022-10-18T09:35:46;50.00;;;25.73;;
6973;SDS011;3527;52.376;8.990;2022-10-18T09:38:45;49.63;;;26.57;;
6973;SDS011;3527;52.376;8.990;2022-10-18T09:45:03;42.57;;;24.43;;
6973;SDS011;3527;52.376;8.990;2022-10-18T09:48:06;37.43;;;22.53;;
6973;SDS011;3527;52.376;8.990;2022-10-18T09:51:07;38.77;;;22.97;;
6973;SDS011;3527;52.376;8.990;2022-10-18T09:57:04;38.47;;;22.43;;
6973;SDS011;3527;52.376;8.990;2022-10-18T09:59:59;38.33;;;20.37;;
6973;SDS011;3527;52.376;8.990;2022-10-18T10:02:49;32.83;;;19.13;;
6973;SDS011;3527;52.376;8.990;2022-10-18T10:05:36;34.17;;;19.03;;
6973;SDS011;3527;52.376;8.990;2022-10-18T10:08:30;36.97;;;18.57;;
6973;SDS011;3527;52.376;8.990;2022-10-18T10:11:29;27.90;;;17.40;;
6973;SDS011;3527;52.376;8.990;2022-10-18T10:14:20;27.10;;;15.60;;
6973;SDS011;3527;52.376;8.990;2022-10-18T10:17:25;26.77;;;15.03;;
6973;SDS011;3527;52.376;8.990;2022-10-18T10:20:21;26.07;;;13.83;;
6973;SDS011;3527;52.376;8.990;2022-10-18T10:26:23;31.83;;;15.37;;
6973;SDS011;3527;52.376;8.990;2022-10-18T10:32:44;22.60;;;14.67;;
6973;SDS011;3527;52.376;8.990;2022-10-18T10:35:37;24.37;;;15.17;;
6973;SDS011;3527;52.376;8.990;2022-10-18T10:38:41;26.27;;;15.07;;
6973;SDS011;3527;52.376;8.990;2022-10-18T10:41:27;30.73;;;15.17;;
6973;SDS011;3527;52.376;8.990;2022-10-18T10:44:22;25.43;;;15.43;;
6973;SDS011;3527;52.376;8.990;2022-10-18T10:47:24;24.90;;;14.90;;
6973;SDS011;3527;52.376;8.990;2022-10-18T10:50:25;27.07;;;14.83;;
6973;SDS011;3527;52.376;8.990;2022-10-18T10:56:27;24.43;;;14.10;;
6973;SDS011;3527;52.376;8.990;2022-10-18T10:59:17;23.27;;;13.07;;
6973;SDS011;3527;52.376;8.990;2022-10-18T11:08:11;17.90;;;10.47;;
6973;SDS011;3527;52.376;8.990;2022-10-18T11:11:22;21.57;;;10.70;;
6973;SDS011;3527;52.376;8.990;2022-10-18T11:14:20;19.63;;;9.53;;
6973;SDS011;3527;52.376;8.990;2022-10-18T11:17:20;18.67;;;10.43;;
6973;SDS011;3527;52.376;8.990;2022-10-18T11:23:17;23.17;;;11.43;;
6973;SDS011;3527;52.376;8.990;2022-10-18T11:39:17;21.70;;;9.07;;
6973;SDS011;3527;52.376;8.990;2022-10-18T11:48:35;14.50;;;7.80;;
6973;SDS011;3527;52.376;8.990;2022-10-18T11:52:01;19.47;;;8.57;;
6973;SDS011;3527;52.376;8.990;2022-10-18T12:07:02;18.03;;;8.57;;
6973;SDS011;3527;52.376;8.990;2022-10-18T12:09:52;18.83;;;8.07;;
6973;SDS011;3527;52.376;8.990;2022-10-18T12:12:45;14.63;;;7.20;;
6973;SDS011;3527;52.376;8.990;2022-10-18T12:15:38;15.63;;;6.70;;
6973;SDS011;3527;52.376;8.990;2022-10-18T12:18:27;12.67;;;6.07;;
6973;SDS011;3527;52.376;8.990;2022-10-18T12:21:17;13.70;;;6.53;;
6973;SDS011;3527;52.376;8.990;2022-10-18T12:24:11;10.43;;;5.30;;
6973;SDS011;3527;52.376;8.990;2022-10-18T12:27:03;11.00;;;4.90;;
6973;SDS011;3527;52.376;8.990;2022-10-18T12:29:52;9.93;;;3.87;;
6973;SDS011;3527;52.376;8.990;2022-10-18T12:32:45;8.57;;;3.17;;
6973;SDS011;3527;52.376;8.990;2022-10-18T12:39:00;7.87;;;2.90;;
6973;SDS011;3527;52.376;8.990;2022-10-18T12:41:52;5.90;;;2.87;;
6973;SDS011;3527;52.376;8.990;2022-10-18T12:44:41;5.87;;;2.53;;
6973;SDS011;3527;52.376;8.990;2022-10-18T12:47:28;7.53;;;2.50;;
6973;SDS011;3527;52.376;8.990;2022-10-18T12:53:29;8.80;;;2.97;;
6973;SDS011;3527;52.376;8.990;2022-10-18T13:04:50;7.63;;;2.40;;
6973;SDS011;3527;52.376;8.990;2022-10-18T13:07:37;7.53;;;2.87;;
6973;SDS011;3527;52.376;8.990;2022-10-18T13:10:34;15.90;;;3.10;;
6973;SDS011;3527;52.376;8.990;2022-10-18T13:13:24;8.23;;;2.70;;
6973;SDS011;3527;52.376;8.990;2022-10-18T13:38:45;8.10;;;2.50;;
6973;SDS011;3527;52.376;8.990;2022-10-18T13:44:43;6.23;;;1.93;;
6973;SDS011;3527;52.376;8.990;2022-10-18T13:47:32;8.00;;;2.33;;
6973;SDS011;3527;52.376;8.990;2022-10-18T13:50:25;7.07;;;1.83;;
6973;SDS011;3527;52.376;8.990;2022-10-18T13:53:28;4.27;;;1.60;;
6973;SDS011;3527;52.376;8.990;2022-10-18T13:56:31;7.37;;;1.50;;
6973;SDS011;3527;52.376;8.990;2022-10-18T14:02:26;5.10;;;1.50;;
6973;SDS011;3527;52.376;8.990;2022-10-18T14:09:06;5.27;;;1.40;;
6973;SDS011;3527;52.376;8.990;2022-10-18T14:15:28;3.30;;;1.43;;
6973;SDS011;3527;52.376;8.990;2022-10-18T14:18:23;4.43;;;1.90;;
6973;SDS011;3527;52.376;8.990;2022-10-18T14:21:21;3.63;;;1.50;;
6973;SDS011;3527;52.376;8.990;2022-10-18T14:24:21;5.60;;;1.73;;
6973;SDS011;3527;52.376;8.990;2022-10-18T14:27:20;7.23;;;1.77;;
6973;SDS011;3527;52.376;8.990;2022-10-18T14:32:58;4.93;;;1.83;;
6973;SDS011;3527;52.376;8.990;2022-10-18T14:35:45;4.83;;;1.90;;
6973;SDS011;3527;52.376;8.990;2022-10-18T14:41:32;7.73;;;1.60;;
6973;SDS011;3527;52.376;8.990;2022-10-18T14:44:38;5.97;;;1.90;;
6973;SDS011;3527;52.376;8.990;2022-10-18T14:47:26;5.23;;;2.10;;
6973;SDS011;3527;52.376;8.990;2022-10-18T14:50:21;4.97;;;2.20;;
6973;SDS011;3527;52.376;8.990;2022-10-18T14:53:12;6.57;;;2.30;;
6973;SDS011;3527;52.376;8.990;2022-10-18T14:56:04;7.50;;;2.43;;
6973;SDS011;3527;52.376;8.990;2022-10-18T14:58:54;4.27;;;2.07;;
6973;SDS011;3527;52.376;8.990;2022-10-18T15:01:49;9.57;;;2.47;;
6973;SDS011;3527;52.376;8.990;2022-10-18T15:04:39;5.27;;;2.40;;
6973;SDS011;3527;52.376;8.990;2022-10-18T15:07:29;5.07;;;2.00;;
6973;SDS011;3527;52.376;8.990;2022-10-18T15:10:22;5.70;;;2.10;;
6973;SDS011;3527;52.376;8.990;2022-10-18T15:13:12;4.80;;;2.03;;
6973;SDS011;3527;52.376;8.990;2022-10-18T15:16:01;4.63;;;2.00;;
6973;SDS011;3527;52.376;8.990;2022-10-18T15:19:03;7.10;;;2.23;;
6973;SDS011;3527;52.376;8.990;2022-10-18T15:22:14;7.10;;;2.13;;
6973;SDS011;3527;52.376;8.990;2022-10-18T15:25:22;8.87;;;2.57;;
6973;SDS011;3527;52.376;8.990;2022-10-18T15:28:26;6.37;;;2.30;;
6973;SDS011;3527;52.376;8.990;2022-10-18T15:34:24;8.37;;;2.00;;
6973;SDS011;3527;52.376;8.990;2022-10-18T15:46:27;5.77;;;2.47;;
6973;SDS011;3527;52.376;8.990;2022-10-18T15:49:45;8.77;;;2.70;;
6973;SDS011;3527;52.376;8.990;2022-10-18T16:01:35;7.33;;;2.23;;
6973;SDS011;3527;52.376;8.990;2022-10-18T16:04:30;8.40;;;2.10;;
6973;SDS011;3527;52.376;8.990;2022-10-18T16:07:18;5.60;;;2.10;;
6973;SDS011;3527;52.376;8.990;2022-10-18T16:10:11;10.17;;;2.10;;
6973;SDS011;3527;52.376;8.990;2022-10-18T16:12:59;5.67;;;2.10;;
6973;SDS011;3527;52.376;8.990;2022-10-18T16:15:46;5.77;;;2.07;;
6973;SDS011;3527;52.376;8.990;2022-10-18T16:18:33;4.40;;;1.70;;
6973;SDS011;3527;52.376;8.990;2022-10-18T16:21:23;6.77;;;2.30;;
6973;SDS011;3527;52.376;8.990;2022-10-18T16:24:12;9.73;;;2.50;;
6973;SDS011;3527;52.376;8.990;2022-10-18T16:26:59;4.77;;;1.90;;
6973;SDS011;3527;52.376;8.990;2022-10-18T16:29:46;4.50;;;2.00;;
6973;SDS011;3527;52.376;8.990;2022-10-18T16:32:33;6.20;;;1.93;;
6973;SDS011;3527;52.376;8.990;2022-10-18T16:35:20;4.43;;;1.90;;
6973;SDS011;3527;52.376;8.990;2022-10-18T16:38:10;8.10;;;2.13;;
6973;SDS011;3527;52.376;8.990;2022-10-18T16:41:06;4.07;;;1.63;;
6973;SDS011;3527;52.376;8.990;2022-10-18T16:43:54;9.57;;;2.10;;
6973;SDS011;3527;52.376;8.990;2022-10-18T16:46:41;5.67;;;2.00;;
6973;SDS011;3527;52.376;8.990;2022-10-18T16:49:28;8.13;;;2.10;;
6973;SDS011;3527;52.376;8.990;2022-10-18T16:52:15;6.57;;;1.90;;
6973;SDS011;3527;52.376;8.990;2022-10-18T16:55:02;9.30;;;2.43;;
6973;SDS011;3527;52.376;8.990;2022-10-18T16:57:49;10.47;;;2.30;;
6973;SDS011;3527;52.376;8.990;2022-10-18T17:00:37;9.70;;;2.47;;
6973;SDS011;3527;52.376;8.990;2022-10-18T17:03:25;7.10;;;2.30;;
6973;SDS011;3527;52.376;8.990;2022-10-18T17:06:16;7.93;;;2.60;;
6973;SDS011;3527;52.376;8.990;2022-10-18T17:09:07;5.93;;;2.40;;
6973;SDS011;3527;52.376;8.990;2022-10-18T17:11:55;7.63;;;2.83;;
6973;SDS011;3527;52.376;8.990;2022-10-18T17:14:42;9.83;;;3.33;;
6973;SDS011;3527;52.376;8.990;2022-10-18T17:17:29;5.40;;;2.70;;
6973;SDS011;3527;52.376;8.990;2022-10-18T17:20:20;9.63;;;3.07;;
6973;SDS011;3527;52.376;8.990;2022-10-18T17:23:17;8.00;;;2.70;;
6973;SDS011;3527;52.376;8.990;2022-10-18T17:26:04;11.33;;;2.87;;
6973;SDS011;3527;52.376;8.990;2022-10-18T17:29:11;12.27;;;3.57;;
6973;SDS011;3527;52.376;8.990;2022-10-18T17:31:58;9.17;;;2.93;;
6973;SDS011;3527;52.376;8.990;2022-10-18T17:34:45;8.80;;;3.33;;
6973;SDS011;3527;52.376;8.990;2022-10-18T17:37:32;9.23;;;3.37;;
6973;SDS011;3527;52.376;8.990;2022-10-18T17:40:20;8.30;;;3.77;;
6973;SDS011;3527;52.376;8.990;2022-10-18T17:43:09;7.87;;;4.00;;
6973;SDS011;3527;52.376;8.990;2022-10-18T17:45:58;6.43;;;4.00;;
6973;SDS011;3527;52.376;8.990;2022-10-18T17:48:45;9.93;;;3.80;;
6973;SDS011;3527;52.376;8.990;2022-10-18T17:51:33;8.77;;;4.00;;
6973;SDS011;3527;52.376;8.990;2022-10-18T17:54:20;8.10;;;5.13;;
6973;SDS011;3527;52.376;8.990;2022-10-18T17:57:07;11.83;;;5.93;;
6973;SDS011;3527;52.376;8.990;2022-10-18T17:59:54;9.97;;;6.00;;
6973;SDS011;3527;52.376;8.990;2022-10-18T18:02:41;9.57;;;6.20;;
6973;SDS011;3527;52.376;8.990;2022-10-18T18:05:29;11.13;;;5.70;;
6973;SDS011;3527;52.376;8.990;2022-10-18T18:08:18;11.53;;;5.20;;
6973;SDS011;3527;52.376;8.990;2022-10-18T18:11:05;8.13;;;4.93;;
6973;SDS011;3527;52.376;8.990;2022-10-18T18:13:56;12.03;;;5.60;;
6973;SDS011;3527;52.376;8.990;2022-10-18T18:16:44;11.13;;;5.53;;
6973;SDS011;3527;52.376;8.990;2022-10-18T18:19:32;9.63;;;5.17;;
6973;SDS011;3527;52.376;8.990;2022-10-18T18:22:20;11.13;;;5.07;;
6973;SDS011;3527;52.376;8.990;2022-10-18T18:25:07;9.07;;;4.50;;
6973;SDS011;3527;52.376;8.990;2022-10-18T18:27:55;6.30;;;3.67;;
6973;SDS011;3527;52.376;8.990;2022-10-18T18:30:42;12.23;;;5.33;;
6973;SDS011;3527;52.376;8.990;2022-10-18T18:33:30;7.87;;;4.67;;
6973;SDS011;3527;52.376;8.990;2022-10-18T18:36:18;8.53;;;4.53;;
6973;SDS011;3527;52.376;8.990;2022-10-18T18:39:06;8.90;;;3.97;;
6973;SDS011;3527;52.376;8.990;2022-10-18T18:41:54;11.60;;;5.17;;
6973;SDS011;3527;52.376;8.990;2022-10-18T18:44:42;8.57;;;4.70;;
6973;SDS011;3527;52.376;8.990;2022-10-18T18:47:32;6.30;;;4.00;;
6973;SDS011;3527;52.376;8.990;2022-10-18T18:50:22;9.57;;;4.27;;
6973;SDS011;3527;52.376;8.990;2022-10-18T18:53:09;8.67;;;4.37;;
6973;SDS011;3527;52.376;8.990;2022-10-18T18:56:04;11.87;;;4.50;;
6973;SDS011;3527;52.376;8.990;2022-10-18T18:58:53;9.27;;;4.07;;
6973;SDS011;3527;52.376;8.990;2022-10-18T19:01:41;7.77;;;3.70;;
6973;SDS011;3527;52.376;8.990;2022-10-18T19:04:29;7.17;;;4.17;;
6973;SDS011;3527;52.376;8.990;2022-10-18T19:07:17;7.03;;;3.87;;
6973;SDS011;3527;52.376;8.990;2022-10-18T19:10:05;10.97;;;4.23;;
6973;SDS011;3527;52.376;8.990;2022-10-18T19:12:52;9.17;;;4.03;;
6973;SDS011;3527;52.376;8.990;2022-10-18T19:15:40;7.37;;;3.77;;
6973;SDS011;3527;52.376;8.990;2022-10-18T19:18:28;10.30;;;3.80;;
6973;SDS011;3527;52.376;8.990;2022-10-18T19:21:16;10.20;;;4.20;;
6973;SDS011;3527;52.376;8.990;2022-10-18T19:24:04;8.57;;;3.93;;
6973;SDS011;3527;52.376;8.990;2022-10-18T19:26:54;8.70;;;4.23;;
6973;SDS011;3527;52.376;8.990;2022-10-18T19:29:43;5.80;;;3.50;;
6973;SDS011;3527;52.376;8.990;2022-10-18T19:32:31;8.37;;;3.73;;
6973;SDS011;3527;52.376;8.990;2022-10-18T19:35:19;8.47;;;3.57;;
6973;SDS011;3527;52.376;8.990;2022-10-18T19:38:07;11.07;;;4.33;;
6973;SDS011;3527;52.376;8.990;2022-10-18T19:40:55;9.17;;;3.33;;
6973;SDS011;3527;52.376;8.990;2022-10-18T19:43:42;7.70;;;3.47;;
6973;SDS011;3527;52.376;8.990;2022-10-18T19:46:29;8.43;;;4.13;;
6973;SDS011;3527;52.376;8.990;2022-10-18T19:49:16;9.40;;;3.90;;
6973;SDS011;3527;52.376;8.990;2022-10-18T19:52:03;6.70;;;4.17;;
6973;SDS011;3527;52.376;8.990;2022-10-18T19:54:51;8.83;;;4.17;;
6973;SDS011;3527;52.376;8.990;2022-10-18T19:57:38;11.33;;;3.73;;
6973;SDS011;3527;52.376;8.990;2022-10-18T20:00:25;12.57;;;4.10;;
6973;SDS011;3527;52.376;8.990;2022-10-18T20:03:12;9.07;;;3.60;;
6973;SDS011;3527;52.376;8.990;2022-10-18T20:05:59;9.73;;;4.17;;
6973;SDS011;3527;52.376;8.990;2022-10-18T20:08:47;8.00;;;3.73;;
6973;SDS011;3527;52.376;8.990;2022-10-18T20:11:35;7.80;;;3.60;;
6973;SDS011;3527;52.376;8.990;2022-10-18T20:14:22;10.20;;;3.93;;
6973;SDS011;3527;52.376;8.990;2022-10-18T20:17:09;9.63;;;3.43;;
6973;SDS011;3527;52.376;8.990;2022-10-18T20:19:58;11.17;;;3.83;;
6973;SDS011;3527;52.376;8.990;2022-10-18T20:22:45;10.53;;;3.70;;
6973;SDS011;3527;52.376;8.990;2022-10-18T20:25:32;7.60;;;3.53;;
6973;SDS011;3527;52.376;8.990;2022-10-18T20:28:19;9.67;;;3.30;;